createdAt,value
2022-07-31T00:00:20.516Z,-20559.16
2022-07-31T00:02:48.359Z,-20557.63
2022-07-31T00:05:16.014Z,-20557.03
2022-07-31T00:07:44.976Z,-20557.63
2022-07-31T00:10:12.734Z,-20554.59
2022-07-31T00:12:40.426Z,-20552.78
2022-07-31T00:15:10.849Z,-20554.16
2022-07-31T00:17:39.573Z,-20554.44
2022-07-31T00:20:08.829Z,-20552.63
2022-07-31T00:22:36.658Z,-20553.38
2022-07-31T00:25:06.688Z,-20552.16
2022-07-31T00:27:34.343Z,-20551.56
2022-07-31T00:30:02.060Z,-20552.63
2022-07-31T00:32:29.709Z,-20551.72
2022-07-31T00:34:57.369Z,-20551.25
2022-07-31T00:37:25.397Z,-20552.03
2022-07-31T00:39:54.361Z,-20550.66
2022-07-31T00:42:25.014Z,-20549.75
2022-07-31T00:44:53.912Z,-20549.44
2022-07-31T00:47:23.845Z,-20548.38
2022-07-31T00:49:53.186Z,-20545.19
2022-07-31T00:52:20.983Z,-20543.38
2022-07-31T00:54:48.910Z,-20543.06
2022-07-31T00:57:16.592Z,-20543.22
2022-07-31T00:59:45.666Z,-20542.00
2022-07-31T01:02:13.371Z,-20538.81
2022-07-31T01:04:41.849Z,-20537.00
2022-07-31T01:07:12.326Z,-20534.72
2022-07-31T01:09:40.006Z,-20532.59
2022-07-31T01:12:14.101Z,-20530.63
2022-07-31T01:14:46.692Z,-20529.41
2022-07-31T01:17:18.042Z,-20528.19
2022-07-31T01:19:46.845Z,-20525.16
2022-07-31T01:22:33.851Z,-20522.72
2022-07-31T01:25:10.752Z,-20519.38
2022-07-31T01:28:00.501Z,-20517.28
2022-07-31T01:30:34.109Z,-20513.91
2022-07-31T01:33:20.764Z,-20514.06
2022-07-31T01:35:59.817Z,-20513.00
2022-07-31T01:38:33.800Z,-20511.19
2022-07-31T01:41:05.594Z,-20507.53
2022-07-31T01:43:37.922Z,-20506.31
2022-07-31T01:46:11.235Z,-20506.31
2022-07-31T01:48:40.094Z,-20505.25
2022-07-31T01:51:09.900Z,-20504.19
2022-07-31T01:53:40.009Z,-20501.16
2022-07-31T01:56:08.843Z,-20498.13
2022-07-31T01:58:39.290Z,-20497.38
2022-07-31T02:01:11.411Z,-20497.38
2022-07-31T02:03:43.614Z,-20494.94
2022-07-31T02:06:15.948Z,-20493.72
2022-07-31T02:08:46.263Z,-20492.34
2022-07-31T02:11:15.969Z,-20491.44
2022-07-31T02:13:45.280Z,-20491.28
2022-07-31T02:16:15.787Z,-20489.91
2022-07-31T02:18:44.006Z,-20487.47
2022-07-31T02:21:11.700Z,-20486.13
2022-07-31T02:23:39.370Z,-20484.13
2022-07-31T02:26:08.583Z,-20481.72
2022-07-31T02:28:38.126Z,-20481.25
2022-07-31T02:31:10.203Z,-20480.19
2022-07-31T02:33:40.977Z,-20480.78
2022-07-31T02:36:11.559Z,-20478.97
2022-07-31T02:38:41.564Z,-20475.94
2022-07-31T02:41:12.654Z,-20476.22
2022-07-31T02:43:40.743Z,-20477.75
2022-07-31T02:46:10.098Z,-20476.53
2022-07-31T02:48:40.567Z,-20475.63
2022-07-31T02:51:09.201Z,-20477.16
2022-07-31T02:53:37.822Z,-20476.38
2022-07-31T02:56:09.219Z,-20473.81
2022-07-31T02:58:42.062Z,-20474.72
2022-07-31T03:01:10.716Z,-20472.28
2022-07-31T03:03:39.791Z,-20472.59
2022-07-31T03:06:07.637Z,-20473.50
2022-07-31T03:08:36.272Z,-20475.31
2022-07-31T03:11:04.423Z,-20472.13
2022-07-31T03:13:34.900Z,-20473.97
2022-07-31T03:16:04.239Z,-20472.59
2022-07-31T03:18:32.589Z,-20472.28
2022-07-31T03:21:02.488Z,-20468.63
2022-07-31T03:23:36.278Z,-20470.31
2022-07-31T03:26:05.630Z,-20470.47
2022-07-31T03:28:35.856Z,-20468.34
2022-07-31T03:31:03.967Z,-20468.03
2022-07-31T03:33:31.907Z,-20468.94
2022-07-31T03:36:00.999Z,-20468.03
2022-07-31T03:38:41.564Z,-20469.69
2022-07-31T03:41:11.070Z,-20470.47
2022-07-31T03:43:47.399Z,-20471.38
2022-07-31T03:46:18.175Z,-20471.38
2022-07-31T03:48:47.703Z,-20469.84
2022-07-31T03:51:16.886Z,-20471.97
2022-07-31T03:53:45.099Z,-20469.84
2022-07-31T03:56:14.019Z,-20469.53
2022-07-31T03:58:41.978Z,-20468.94
2022-07-31T04:01:13.358Z,-20471.22
2022-07-31T04:03:41.296Z,-20469.25
2022-07-31T04:06:09.085Z,-20469.25
2022-07-31T04:08:38.047Z,-20469.38
2022-07-31T04:11:05.724Z,-20469.84
2022-07-31T04:13:33.371Z,-20470.16
2022-07-31T04:16:01.017Z,-20470.75
2022-07-31T04:18:29.004Z,-20468.94
2022-07-31T04:20:56.688Z,-20468.78
2022-07-31T04:23:24.276Z,-20470.47
2022-07-31T04:26:01.543Z,-20470.91
2022-07-31T04:28:29.291Z,-20474.25
2022-07-31T04:30:57.457Z,-20476.09
2022-07-31T04:33:25.251Z,-20475.31
2022-07-31T04:35:53.388Z,-20475.03
2022-07-31T04:38:21.726Z,-20476.53
2022-07-31T04:40:50.277Z,-20479.56
2022-07-31T04:43:19.579Z,-20477.75
2022-07-31T04:45:47.298Z,-20477.44
2022-07-31T04:48:14.988Z,-20474.41
2022-07-31T04:50:42.693Z,-20475.31
2022-07-31T04:53:10.395Z,-20475.94
2022-07-31T04:55:38.473Z,-20476.84
2022-07-31T04:58:06.491Z,-20474.72
2022-07-31T05:00:35.456Z,-20477.91
2022-07-31T05:03:03.078Z,-20478.53
2022-07-31T05:05:30.793Z,-20480.19
2022-07-31T05:07:58.877Z,-20480.78
2022-07-31T05:10:46.423Z,-20479.56
2022-07-31T05:13:14.141Z,-20481.25
2022-07-31T05:15:45.937Z,-20483.69
2022-07-31T05:18:13.656Z,-20484.91
2022-07-31T05:20:41.313Z,-20485.34
2022-07-31T05:23:08.967Z,-20484.75
2022-07-31T05:25:36.682Z,-20488.41
2022-07-31T05:28:09.555Z,-20489.31
2022-07-31T05:30:37.559Z,-20491.28
2022-07-31T05:33:06.899Z,-20490.81
2022-07-31T05:35:34.615Z,-20493.72
2022-07-31T05:38:02.354Z,-20493.56
2022-07-31T05:40:30.132Z,-20493.88
2022-07-31T05:42:57.755Z,-20495.69
2022-07-31T05:45:25.423Z,-20499.50
2022-07-31T05:47:53.268Z,-20504.81
2022-07-31T05:50:23.206Z,-20508.16
2022-07-31T05:52:51.084Z,-20505.72
2022-07-31T05:55:18.801Z,-20507.38
2022-07-31T05:57:46.458Z,-20505.72
2022-07-31T06:00:16.317Z,-20511.50
2022-07-31T06:02:45.571Z,-20511.34
2022-07-31T06:05:13.290Z,-20514.84
2022-07-31T06:07:51.223Z,-20518.78
2022-07-31T06:10:20.092Z,-20523.78
2022-07-31T06:12:47.777Z,-20527.88
2022-07-31T06:15:15.750Z,-20529.09
2022-07-31T06:17:44.946Z,-20532.00
2022-07-31T06:20:13.955Z,-20535.19
2022-07-31T06:22:44.111Z,-20539.72
2022-07-31T06:25:13.273Z,-20537.00
2022-07-31T06:27:42.594Z,-20539.28
2022-07-31T06:30:11.987Z,-20537.91
2022-07-31T06:32:39.807Z,-20543.84
2022-07-31T06:35:08.993Z,-20546.41
2022-07-31T06:37:36.698Z,-20547.16
2022-07-31T06:40:06.823Z,-20552.78
2022-07-31T06:42:34.712Z,-20558.53
2022-07-31T06:45:02.430Z,-20564.47
2022-07-31T06:47:30.143Z,-20567.66
2022-07-31T06:49:57.838Z,-20574.63
2022-07-31T06:52:25.479Z,-20581.75
2022-07-31T06:54:53.183Z,-20596.44
2022-07-31T06:57:22.571Z,-20616.44
2022-07-31T06:59:50.229Z,-20640.06
2022-07-31T07:02:17.962Z,-20653.06
2022-07-31T07:04:58.501Z,-20677.84
2022-07-31T07:07:35.298Z,-20674.81
2022-07-31T07:10:02.971Z,-20694.31
2022-07-31T07:12:31.973Z,-20708.50
2022-07-31T07:14:59.656Z,-20719.69
2022-07-31T07:17:29.555Z,-20732.34
2022-07-31T07:19:57.767Z,-20712.75
2022-07-31T07:22:31.589Z,-20703.09
2022-07-31T07:25:00.883Z,-20701.41
2022-07-31T07:27:28.544Z,-20709.88
2022-07-31T07:29:57.983Z,-20705.19
2022-07-31T07:32:25.635Z,-20706.41
2022-07-31T07:34:59.885Z,-20704.13
2022-07-31T07:37:28.688Z,-20712.00
2022-07-31T07:39:56.742Z,-20712.28
2022-07-31T07:42:24.436Z,-20727.38
2022-07-31T07:44:52.111Z,-20750.91
2022-07-31T07:47:21.103Z,-20781.34
2022-07-31T07:49:48.742Z,-20809.03
2022-07-31T07:52:16.610Z,-20819.88
2022-07-31T07:54:44.408Z,-20830.25
2022-07-31T07:57:15.929Z,-20848.13
2022-07-31T07:59:43.829Z,-20841.22
2022-07-31T08:02:12.284Z,-20823.63
2022-07-31T08:04:45.835Z,-20820.47
2022-07-31T08:07:15.305Z,-20816.41
2022-07-31T08:09:42.908Z,-20801.06
2022-07-31T08:12:10.736Z,-20808.00
2022-07-31T08:14:38.365Z,-20793.25
2022-07-31T08:17:06.441Z,-20797.75
2022-07-31T08:19:34.206Z,-20797.47
2022-07-31T08:22:03.482Z,-20798.22
2022-07-31T08:24:31.388Z,-20815.06
2022-07-31T08:27:16.907Z,-20815.66
2022-07-31T08:29:49.280Z,-20831.44
2022-07-31T08:32:17.976Z,-20831.91
2022-07-31T08:34:45.765Z,-20840.63
2022-07-31T08:37:51.184Z,-20855.34
2022-07-31T08:40:02.572Z,-20861.97
2022-07-31T08:42:30.701Z,-20837.00
2022-07-31T08:44:58.349Z,-20826.19
2022-07-31T08:47:27.205Z,-20831.59
2022-07-31T08:49:56.651Z,-20861.78
2022-07-31T08:52:26.676Z,-20876.97
2022-07-31T08:54:55.474Z,-20857.75
2022-07-31T08:57:23.519Z,-20879.38
2022-07-31T08:59:52.603Z,-20860.59
2022-07-31T09:02:20.680Z,-20877.25
2022-07-31T09:04:52.294Z,-20871.88
2022-07-31T09:07:20.530Z,-20874.56
2022-07-31T09:09:51.478Z,-20897.81
2022-07-31T09:12:33.483Z,-20885.06
2022-07-31T09:15:01.948Z,-20894.53
2022-07-31T09:17:35.587Z,-20878.47
2022-07-31T09:20:05.897Z,-20873.97
2022-07-31T09:22:33.906Z,-20859.53
2022-07-31T09:25:12.340Z,-20870.81
2022-07-31T09:27:41.223Z,-20859.25
2022-07-31T09:30:10.312Z,-20833.84
2022-07-31T09:32:38.000Z,-20822.88
2022-07-31T09:35:10.680Z,-20827.53
2022-07-31T09:37:39.179Z,-20821.97
2022-07-31T09:40:10.252Z,-20827.38
2022-07-31T09:42:45.615Z,-20825.59
2022-07-31T09:45:21.162Z,-20836.56
2022-07-31T09:48:02.958Z,-20870.81
2022-07-31T09:50:30.816Z,-20869.63
2022-07-31T09:53:01.009Z,-20886.72
2022-07-31T09:55:31.080Z,-20886.28
2022-07-31T09:58:00.309Z,-20869.16
2022-07-31T10:00:28.790Z,-20861.66
2022-07-31T10:02:57.520Z,-20878.00
2022-07-31T10:05:27.033Z,-20882.22
2022-07-31T10:07:57.211Z,-20879.81
2022-07-31T10:10:25.498Z,-20875.75
2022-07-31T10:12:57.068Z,-20900.97
2022-07-31T10:15:26.960Z,-20890.47
2022-07-31T10:17:56.335Z,-20893.78
2022-07-31T10:20:26.300Z,-20889.28
2022-07-31T10:22:57.617Z,-20890.31
2022-07-31T10:25:26.648Z,-20909.06
2022-07-31T10:27:57.278Z,-20905.31
2022-07-31T10:30:28.138Z,-20918.97
2022-07-31T10:32:58.762Z,-20911.16
2022-07-31T10:35:27.156Z,-20887.47
2022-07-31T10:37:59.841Z,-20916.09
2022-07-31T10:40:35.012Z,-20920.59
2022-07-31T10:43:19.923Z,-20925.09
2022-07-31T10:45:49.283Z,-20917.91
2022-07-31T10:48:17.782Z,-20931.69
2022-07-31T10:50:46.060Z,-20929.16
2022-07-31T10:53:18.364Z,-20926.75
2022-07-31T10:55:46.375Z,-20925.69
2022-07-31T10:58:17.070Z,-20907.56
2022-07-31T11:00:45.505Z,-20903.06
2022-07-31T11:03:15.148Z,-20914.16
2022-07-31T11:06:01.614Z,-20933.94
2022-07-31T11:08:41.083Z,-20940.69
2022-07-31T11:11:08.878Z,-20957.88
2022-07-31T11:13:49.043Z,-20941.72
2022-07-31T11:16:17.347Z,-20933.94
2022-07-31T11:18:47.455Z,-20951.00
2022-07-31T11:21:37.676Z,-20930.50
2022-07-31T11:24:13.407Z,-20936.94
2022-07-31T11:26:44.294Z,-20922.25
2022-07-31T11:30:00.379Z,-20947.13
2022-07-31T11:32:01.893Z,-20926.75
2022-07-31T11:34:29.532Z,-20927.66
2022-07-31T11:36:57.379Z,-20917.75
2022-07-31T11:39:36.454Z,-20922.84
2022-07-31T11:42:07.336Z,-20919.25
2022-07-31T11:44:37.495Z,-20915.97
2022-07-31T11:48:10.274Z,-20923.00
2022-07-31T11:50:02.149Z,-20936.34
2022-07-31T11:52:30.859Z,-20931.38
2022-07-31T11:55:08.883Z,-20938.13
2022-07-31T11:57:51.605Z,-20942.31
2022-07-31T12:00:28.809Z,-20939.63
2022-07-31T12:02:58.638Z,-20951.16
2022-07-31T12:05:38.161Z,-20934.69
2022-07-31T12:08:07.844Z,-20944.13
2022-07-31T12:10:36.214Z,-20926.75
2022-07-31T12:13:04.038Z,-20937.84
2022-07-31T12:15:33.068Z,-20940.69
2022-07-31T12:18:02.328Z,-20952.19
2022-07-31T12:20:35.879Z,-20963.28
2022-07-31T12:23:05.632Z,-20954.44
2022-07-31T12:25:45.538Z,-20957.75
2022-07-31T12:28:14.844Z,-20980.31
2022-07-31T12:30:44.703Z,-20982.56
2022-07-31T12:33:14.157Z,-20989.28
2022-07-31T12:35:56.392Z,-20982.72
2022-07-31T12:38:44.994Z,-20985.09
2022-07-31T12:41:14.494Z,-20962.53
2022-07-31T12:43:51.005Z,-20971.97
2022-07-31T12:46:22.913Z,-20962.38
2022-07-31T12:48:51.083Z,-20972.41
2022-07-31T12:51:45.818Z,-20964.78
2022-07-31T12:54:09.152Z,-20960.44
2022-07-31T12:56:37.059Z,-20956.09
2022-07-31T12:59:05.619Z,-20960.59
2022-07-31T13:01:35.533Z,-20962.38
2022-07-31T13:04:04.734Z,-20976.28
2022-07-31T13:06:36.152Z,-20974.50
2022-07-31T13:09:04.769Z,-20959.53
2022-07-31T13:11:46.548Z,-20938.88
2022-07-31T13:14:16.189Z,-20952.81
2022-07-31T13:16:45.368Z,-20942.03
2022-07-31T13:19:13.976Z,-20939.31
2022-07-31T13:21:49.143Z,-20933.03
2022-07-31T13:24:17.575Z,-20921.50
2022-07-31T13:26:45.744Z,-20908.47
2022-07-31T13:29:14.003Z,-20923.00
2022-07-31T13:31:41.983Z,-20945.31
2022-07-31T13:34:11.079Z,-20954.28
2022-07-31T13:36:39.790Z,-20971.06
2022-07-31T13:39:08.174Z,-20967.91
2022-07-31T13:41:36.093Z,-20959.69
2022-07-31T13:44:06.631Z,-20958.78
2022-07-31T13:46:34.388Z,-20973.44
2022-07-31T13:49:04.003Z,-20960.28
2022-07-31T13:51:33.031Z,-20947.13
2022-07-31T13:54:00.805Z,-20930.94
2022-07-31T13:56:38.782Z,-20936.63
2022-07-31T13:59:12.534Z,-20948.00
2022-07-31T14:02:12.984Z,-20951.44
2022-07-31T14:04:31.282Z,-20943.22
2022-07-31T14:07:04.352Z,-20957.59
2022-07-31T14:09:34.219Z,-20963.28
2022-07-31T14:12:03.675Z,-20984.81
2022-07-31T14:14:32.729Z,-20970.47
2022-07-31T14:17:00.532Z,-20964.63
2022-07-31T14:19:28.328Z,-20951.91
2022-07-31T14:21:57.363Z,-20954.91
2022-07-31T14:24:27.013Z,-20955.03
2022-07-31T14:26:54.661Z,-20962.69
2022-07-31T14:29:22.411Z,-20945.63
2022-07-31T14:31:50.282Z,-20944.88
2022-07-31T14:34:18.151Z,-20964.47
2022-07-31T14:36:45.783Z,-20961.47
2022-07-31T14:39:13.692Z,-20943.81
2022-07-31T14:41:42.911Z,-20948.47
2022-07-31T14:44:11.878Z,-20952.19
2022-07-31T14:46:39.412Z,-20961.94
2022-07-31T14:49:08.584Z,-20956.84
2022-07-31T14:51:36.369Z,-20976.13
2022-07-31T14:54:04.112Z,-20963.28
2022-07-31T14:56:59.800Z,-20955.03
2022-07-31T14:59:21.440Z,-20954.00
2022-07-31T15:01:49.079Z,-20946.97
2022-07-31T15:04:16.854Z,-20942.91
2022-07-31T15:06:56.109Z,-20945.75
2022-07-31T15:09:27.340Z,-20945.91
2022-07-31T15:11:59.643Z,-20937.38
2022-07-31T15:14:30.630Z,-20942.31
2022-07-31T15:16:58.352Z,-20954.91
2022-07-31T15:19:26.029Z,-20954.28
2022-07-31T15:22:09.515Z,-20944.13
2022-07-31T15:24:49.282Z,-20938.72
2022-07-31T15:27:18.060Z,-20929.75
2022-07-31T15:30:04.507Z,-20941.88
2022-07-31T15:32:35.275Z,-20932.00
2022-07-31T15:35:03.381Z,-20933.94
2022-07-31T15:37:31.081Z,-20938.28
2022-07-31T15:40:01.999Z,-20935.28
2022-07-31T15:42:31.189Z,-20934.84
2022-07-31T15:45:00.306Z,-20947.13
2022-07-31T15:47:28.000Z,-20953.69
2022-07-31T15:49:55.606Z,-20952.66
2022-07-31T15:52:23.222Z,-20933.34
2022-07-31T15:54:52.550Z,-20923.75
2022-07-31T15:57:20.946Z,-20920.47
2022-07-31T15:59:49.074Z,-20920.31
2022-07-31T16:02:18.299Z,-20930.34
2022-07-31T16:04:53.063Z,-20932.44
2022-07-31T16:08:30.359Z,-20929.16
2022-07-31T16:10:15.477Z,-20936.78
2022-07-31T16:12:43.914Z,-20920.59
2022-07-31T16:15:12.380Z,-20917.47
2022-07-31T16:17:42.042Z,-20909.34
2022-07-31T16:20:12.320Z,-20915.34
2022-07-31T16:22:42.393Z,-20914.75
2022-07-31T16:25:11.738Z,-20909.34
2022-07-31T16:27:40.536Z,-20914.00
2022-07-31T16:30:09.443Z,-20914.75
2022-07-31T16:32:37.395Z,-20912.81
2022-07-31T16:35:07.749Z,-20916.56
2022-07-31T16:37:50.953Z,-20910.13
2022-07-31T16:40:29.708Z,-20906.97
2022-07-31T16:43:00.709Z,-20908.91
2022-07-31T16:45:28.890Z,-20911.16
2022-07-31T16:47:56.695Z,-20907.13
2022-07-31T16:50:26.438Z,-20908.91
2022-07-31T16:52:55.121Z,-20897.81
2022-07-31T16:55:59.553Z,-20892.13
2022-07-31T16:58:12.645Z,-20892.72
2022-07-31T17:00:41.221Z,-20891.97
2022-07-31T17:03:58.927Z,-20888.50
2022-07-31T17:05:58.305Z,-20890.16
2022-07-31T17:08:26.076Z,-20882.38
2022-07-31T17:10:54.806Z,-20885.66
2022-07-31T17:13:23.034Z,-20885.22
2022-07-31T17:15:50.800Z,-20885.81
2022-07-31T17:18:18.784Z,-20888.38
2022-07-31T17:20:47.827Z,-20882.38
2022-07-31T17:23:18.127Z,-20873.34
2022-07-31T17:26:06.070Z,-20870.22
2022-07-31T17:28:34.167Z,-20869.91
2022-07-31T17:31:03.738Z,-20867.66
2022-07-31T17:33:58.525Z,-20860.44
2022-07-31T17:36:19.786Z,-20856.53
2022-07-31T17:38:48.797Z,-20853.53
2022-07-31T17:41:24.948Z,-20853.38
2022-07-31T17:43:54.056Z,-20852.03
2022-07-31T17:46:34.781Z,-20850.53
2022-07-31T17:49:05.874Z,-20848.75
2022-07-31T17:51:34.297Z,-20843.91
2022-07-31T17:54:04.216Z,-20844.22
2022-07-31T17:56:31.937Z,-20840.78
2022-07-31T17:59:04.659Z,-20837.91
2022-07-31T18:01:33.746Z,-20836.41
2022-07-31T18:04:01.847Z,-20834.91
2022-07-31T18:06:29.758Z,-20836.25
2022-07-31T18:08:57.641Z,-20834.16
2022-07-31T18:11:27.134Z,-20830.69
2022-07-31T18:13:55.461Z,-20829.50
2022-07-31T18:16:24.669Z,-20825.13
2022-07-31T18:18:54.665Z,-20818.66
2022-07-31T18:21:22.915Z,-20818.81
2022-07-31T18:23:50.547Z,-20817.16
2022-07-31T18:26:18.518Z,-20814.47
2022-07-31T18:28:47.644Z,-20812.50
2022-07-31T18:31:31.707Z,-20810.25
2022-07-31T18:34:00.532Z,-20809.63
2022-07-31T18:36:28.287Z,-20806.94
2022-07-31T18:38:56.040Z,-20803.31
2022-07-31T18:41:23.908Z,-20802.13
2022-07-31T18:43:52.940Z,-20800.00
2022-07-31T18:46:21.049Z,-20796.56
2022-07-31T18:48:54.538Z,-20797.91
2022-07-31T18:51:23.916Z,-20795.03
2022-07-31T18:53:54.628Z,-20794.59
2022-07-31T18:56:23.311Z,-20791.72
2022-07-31T18:58:51.230Z,-20788.72
2022-07-31T19:01:20.942Z,-20787.81
2022-07-31T19:03:49.772Z,-20788.28
2022-07-31T19:06:18.802Z,-20786.63
2022-07-31T19:08:49.374Z,-20781.94
2022-07-31T19:11:17.426Z,-20783.44
2022-07-31T19:13:45.615Z,-20774.56
2022-07-31T19:16:15.032Z,-20777.44
2022-07-31T19:18:50.173Z,-20773.97
2022-07-31T19:21:38.510Z,-20764.63
2022-07-31T19:24:08.122Z,-20769.16
2022-07-31T19:26:36.291Z,-20765.69
2022-07-31T19:29:04.393Z,-20763.56
2022-07-31T19:31:32.496Z,-20754.53
2022-07-31T19:34:01.792Z,-20756.03
2022-07-31T19:36:29.959Z,-20753.91
2022-07-31T19:38:58.033Z,-20752.72
2022-07-31T19:41:25.819Z,-20749.69
2022-07-31T19:43:53.699Z,-20749.41
2022-07-31T19:46:21.503Z,-20748.19
2022-07-31T19:48:49.969Z,-20743.97
2022-07-31T19:51:19.281Z,-20740.97
2022-07-31T19:53:46.954Z,-20739.16
2022-07-31T19:56:20.425Z,-20737.94
2022-07-31T19:58:48.767Z,-20734.63
2022-07-31T20:01:19.888Z,-20731.91
2022-07-31T20:03:47.969Z,-20734.31
2022-07-31T20:06:16.204Z,-20729.19
2022-07-31T20:08:45.327Z,-20727.84
2022-07-31T20:11:13.398Z,-20726.03
2022-07-31T20:13:41.379Z,-20722.84
2022-07-31T20:16:09.367Z,-20720.28
2022-07-31T20:18:37.085Z,-20718.03
2022-07-31T20:21:07.769Z,-20717.72
2022-07-31T20:23:38.273Z,-20719.69
2022-07-31T20:26:08.353Z,-20718.78
2022-07-31T20:28:36.724Z,-20714.09
2022-07-31T20:31:04.600Z,-20710.03
2022-07-31T20:33:32.376Z,-20708.97
2022-07-31T20:36:00.023Z,-20703.22
2022-07-31T20:38:27.659Z,-20704.44
2022-07-31T20:40:56.234Z,-20699.91
2022-07-31T20:43:27.345Z,-20701.28
2022-07-31T20:45:57.290Z,-20695.97
2022-07-31T20:48:31.106Z,-20692.66
2022-07-31T20:50:59.925Z,-20687.81
2022-07-31T20:53:27.711Z,-20688.88
2022-07-31T20:55:55.590Z,-20686.91
2022-07-31T20:58:26.143Z,-20686.78
2022-07-31T21:00:54.790Z,-20686.00
2022-07-31T21:03:22.579Z,-20676.03
2022-07-31T21:05:50.671Z,-20676.34
2022-07-31T21:08:18.692Z,-20673.63
2022-07-31T21:10:46.740Z,-20672.09
2022-07-31T21:13:14.691Z,-20673.63
2022-07-31T21:15:45.322Z,-20670.91
2022-07-31T21:18:13.880Z,-20666.06
2022-07-31T21:20:52.515Z,-20662.44
2022-07-31T21:23:22.385Z,-20658.50
2022-07-31T21:25:50.595Z,-20656.69
2022-07-31T21:28:18.904Z,-20655.47
2022-07-31T21:30:48.364Z,-20653.06
2022-07-31T21:33:16.313Z,-20652.16
2022-07-31T21:35:44.900Z,-20650.63
2022-07-31T21:38:15.133Z,-20654.88
2022-07-31T21:40:43.157Z,-20648.81
2022-07-31T21:43:11.890Z,-20650.03
2022-07-31T21:45:50.614Z,-20651.25
2022-07-31T21:48:28.249Z,-20649.56
2022-07-31T21:50:56.041Z,-20648.38
2022-07-31T21:53:24.538Z,-20653.06
2022-07-31T21:55:52.751Z,-20651.69
2022-07-31T21:58:20.525Z,-20648.22
2022-07-31T22:00:48.383Z,-20645.81
2022-07-31T22:03:16.689Z,-20643.69
2022-07-31T22:06:03.128Z,-20642.03
2022-07-31T22:08:30.829Z,-20639.44
2022-07-31T22:10:58.708Z,-20638.53
2022-07-31T22:13:26.552Z,-20636.72
2022-07-31T22:15:59.839Z,-20639.59
2022-07-31T22:18:29.878Z,-20640.81
2022-07-31T22:20:59.401Z,-20639.91
2022-07-31T22:23:28.473Z,-20642.47
2022-07-31T22:25:57.078Z,-20643.69
2022-07-31T22:28:27.096Z,-20644.59
2022-07-31T22:30:55.707Z,-20642.47
2022-07-31T22:33:23.851Z,-20641.09
2022-07-31T22:35:58.943Z,-20642.16
2022-07-31T22:38:30.807Z,-20638.53
2022-07-31T22:40:59.483Z,-20641.56
2022-07-31T22:44:10.074Z,-20641.09
2022-07-31T22:46:16.142Z,-20642.47
2022-07-31T22:48:45.889Z,-20640.97
2022-07-31T22:51:14.916Z,-20645.94
2022-07-31T22:53:45.551Z,-20643.06
2022-07-31T22:56:17.012Z,-20644.59
2022-07-31T22:58:44.687Z,-20645.50
2022-07-31T23:01:12.507Z,-20642.78
2022-07-31T23:03:40.116Z,-20643.22
2022-07-31T23:06:31.106Z,-20642.47
2022-07-31T23:08:57.238Z,-20646.09
2022-07-31T23:11:25.408Z,-20650.63
2022-07-31T23:13:53.503Z,-20649.28
2022-07-31T23:16:22.160Z,-20649.72
2022-07-31T23:18:49.863Z,-20648.81
2022-07-31T23:21:18.542Z,-20649.44
2022-07-31T23:23:48.775Z,-20647.31
2022-07-31T23:26:19.175Z,-20647.75
2022-07-31T23:28:47.253Z,-20647.63
2022-07-31T23:31:15.016Z,-20645.81
2022-07-31T23:33:43.442Z,-20646.09
2022-07-31T23:36:11.148Z,-20644.28
2022-07-31T23:38:38.911Z,-20642.31
2022-07-31T23:41:06.575Z,-20642.47
2022-07-31T23:43:34.618Z,-20638.22
2022-07-31T23:46:02.672Z,-20637.63
2022-07-31T23:48:31.440Z,-20641.88
2022-07-31T23:50:59.398Z,-20639.16
2022-07-31T23:53:27.067Z,-20634.28
2022-07-31T23:55:54.803Z,-20635.34
2022-07-31T23:58:22.523Z,-20633.38
